createdAt,value
2023-06-26T00:00:24.442Z,7.55
2023-06-26T00:02:27.284Z,7.45
2023-06-26T00:04:29.931Z,6.60
2023-06-26T00:06:32.570Z,7.40
2023-06-26T00:08:35.196Z,7.22
2023-06-26T00:10:39.758Z,7.22
2023-06-26T00:12:42.659Z,7.65
2023-06-26T00:14:45.266Z,7.65
2023-06-26T00:16:47.921Z,8.00
2023-06-26T00:18:50.522Z,7.70
2023-06-26T00:20:53.149Z,7.55
2023-06-26T00:22:59.865Z,7.78
2023-06-26T00:25:03.736Z,7.57
2023-06-26T00:27:08.191Z,8.20
2023-06-26T00:29:10.949Z,8.52
2023-06-26T00:31:13.611Z,8.63
2023-06-26T00:33:16.580Z,8.13
2023-06-26T00:35:19.291Z,8.45
2023-06-26T00:37:23.070Z,8.52
2023-06-26T00:39:26.847Z,8.27
2023-06-26T00:41:29.618Z,8.40
2023-06-26T00:43:33.587Z,7.90
2023-06-26T00:45:43.203Z,8.77
2023-06-26T00:47:46.658Z,7.72
2023-06-26T00:49:49.569Z,7.72
2023-06-26T00:51:52.430Z,8.55
2023-06-26T00:53:55.195Z,9.10
2023-06-26T00:55:57.936Z,8.43
2023-06-26T00:58:00.645Z,8.40
2023-06-26T01:00:06.496Z,9.30
2023-06-26T01:02:10.820Z,8.43
2023-06-26T01:04:18.823Z,7.80
2023-06-26T01:06:23.842Z,8.43
2023-06-26T01:08:27.449Z,8.55
2023-06-26T01:10:30.370Z,8.27
2023-06-26T01:12:33.906Z,7.93
2023-06-26T01:14:37.182Z,8.18
2023-06-26T01:16:42.974Z,8.60
2023-06-26T01:18:46.640Z,8.38
2023-06-26T01:20:50.203Z,8.05
2023-06-26T01:23:07.710Z,8.13
2023-06-26T01:25:18.917Z,8.02
2023-06-26T01:27:24.763Z,8.57
2023-06-26T01:29:28.102Z,7.88
2023-06-26T01:31:32.421Z,8.20
2023-06-26T01:33:35.408Z,8.20
2023-06-26T01:35:38.891Z,8.18
2023-06-26T01:37:41.660Z,8.15
2023-06-26T01:39:44.259Z,7.95
2023-06-26T01:41:47.471Z,8.93
2023-06-26T01:44:06.210Z,8.63
2023-06-26T01:46:13.621Z,9.13
2023-06-26T01:48:22.630Z,8.25
2023-06-26T01:50:28.651Z,8.60
2023-06-26T01:52:42.756Z,8.55
2023-06-26T01:54:54.881Z,8.90
2023-06-26T01:56:58.789Z,9.15
2023-06-26T01:59:06.861Z,8.02
2023-06-26T02:01:09.640Z,8.75
2023-06-26T02:03:12.406Z,8.55
2023-06-26T02:05:15.821Z,8.60
2023-06-26T02:07:18.596Z,8.63
2023-06-26T02:09:21.240Z,8.13
2023-06-26T02:11:23.908Z,9.23
2023-06-26T02:13:26.539Z,8.50
2023-06-26T02:15:30.519Z,8.82
2023-06-26T02:17:33.273Z,7.97
2023-06-26T02:19:35.902Z,8.73
2023-06-26T02:21:39.567Z,8.05
2023-06-26T02:23:42.293Z,7.95
2023-06-26T02:25:44.942Z,8.18
2023-06-26T02:27:47.567Z,9.25
2023-06-26T02:29:50.219Z,8.73
2023-06-26T02:31:54.190Z,8.45
2023-06-26T02:33:56.827Z,8.40
2023-06-26T02:35:59.516Z,8.50
2023-06-26T02:38:02.181Z,8.18
2023-06-26T02:40:06.131Z,8.35
2023-06-26T02:42:08.793Z,8.88
2023-06-26T02:44:12.714Z,9.63
2023-06-26T02:46:15.453Z,8.30
2023-06-26T02:48:19.463Z,8.45
2023-06-26T02:50:22.071Z,7.88
2023-06-26T02:52:24.729Z,8.25
2023-06-26T02:54:27.387Z,8.23
2023-06-26T02:56:30.432Z,9.23
2023-06-26T02:58:33.088Z,8.65
2023-06-26T03:00:35.740Z,9.55
2023-06-26T03:02:38.460Z,8.70
2023-06-26T03:04:44.266Z,7.95
2023-06-26T03:06:47.009Z,8.18
2023-06-26T03:08:49.660Z,7.70
2023-06-26T03:10:52.286Z,8.45
2023-06-26T03:12:54.888Z,9.45
2023-06-26T03:14:57.512Z,8.93
2023-06-26T03:17:04.352Z,9.05
2023-06-26T03:19:07.123Z,9.25
2023-06-26T03:21:13.428Z,8.95
2023-06-26T03:23:16.260Z,9.15
2023-06-26T03:25:18.992Z,8.95
2023-06-26T03:27:21.619Z,8.63
2023-06-26T03:29:24.230Z,8.38
2023-06-26T03:31:26.888Z,8.60
2023-06-26T03:33:29.566Z,8.07
2023-06-26T03:35:32.240Z,8.95
2023-06-26T03:37:36.151Z,8.55
2023-06-26T03:39:38.829Z,8.98
2023-06-26T03:41:41.453Z,8.23
2023-06-26T03:43:44.090Z,8.45
2023-06-26T03:45:47.634Z,8.73
2023-06-26T03:47:50.945Z,9.13
2023-06-26T03:49:53.598Z,9.02
2023-06-26T03:51:56.324Z,8.98
2023-06-26T03:54:00.329Z,9.40
2023-06-26T03:56:03.086Z,8.88
2023-06-26T03:58:05.951Z,8.77
2023-06-26T04:00:10.168Z,8.73
2023-06-26T04:02:13.912Z,8.60
2023-06-26T04:04:16.807Z,8.75
2023-06-26T04:06:19.670Z,8.98
2023-06-26T04:08:22.322Z,8.52
2023-06-26T04:10:26.322Z,8.80
2023-06-26T04:12:29.367Z,8.88
2023-06-26T04:14:32.057Z,8.55
2023-06-26T04:16:34.634Z,8.65
2023-06-26T04:18:37.194Z,8.65
2023-06-26T04:20:41.759Z,9.43
2023-06-26T04:22:44.390Z,8.23
2023-06-26T04:24:47.256Z,8.52
2023-06-26T04:26:51.191Z,9.02
2023-06-26T04:28:53.795Z,9.07
2023-06-26T04:30:56.453Z,8.63
2023-06-26T04:33:00.119Z,8.95
2023-06-26T04:35:04.091Z,8.50
2023-06-26T04:37:06.812Z,8.85
2023-06-26T04:39:09.462Z,8.77
2023-06-26T04:41:12.157Z,8.75
2023-06-26T04:43:16.242Z,9.07
2023-06-26T04:45:19.628Z,8.75
2023-06-26T04:47:22.254Z,8.68
2023-06-26T04:49:25.264Z,9.35
2023-06-26T04:51:29.932Z,8.70
2023-06-26T04:53:32.706Z,9.70
2023-06-26T04:55:35.949Z,8.05
2023-06-26T04:57:40.006Z,8.75
2023-06-26T04:59:43.965Z,8.32
2023-06-26T05:01:49.114Z,8.88
2023-06-26T05:03:51.946Z,8.98
2023-06-26T05:05:55.026Z,8.68
2023-06-26T05:07:58.111Z,7.88
2023-06-26T05:10:00.736Z,8.10
2023-06-26T05:12:04.118Z,8.50
2023-06-26T05:14:08.233Z,8.73
2023-06-26T05:16:12.309Z,8.20
2023-06-26T05:18:14.954Z,8.85
2023-06-26T05:20:17.735Z,8.57
2023-06-26T05:22:21.608Z,8.45
2023-06-26T05:24:25.239Z,9.00
2023-06-26T05:26:28.513Z,7.60
2023-06-26T05:28:32.348Z,9.23
2023-06-26T05:30:36.790Z,8.35
2023-06-26T05:32:42.507Z,8.52
2023-06-26T05:34:46.372Z,9.23
2023-06-26T05:36:52.564Z,8.52
2023-06-26T05:38:57.510Z,8.88
2023-06-26T05:41:00.741Z,8.60
2023-06-26T05:43:04.136Z,8.80
2023-06-26T05:45:07.642Z,9.00
2023-06-26T05:47:10.559Z,8.60
2023-06-26T05:49:15.451Z,9.57
2023-06-26T05:51:18.753Z,8.80
2023-06-26T05:53:22.094Z,8.60
2023-06-26T05:55:25.700Z,8.70
2023-06-26T05:57:29.917Z,9.00
2023-06-26T05:59:34.207Z,8.63
2023-06-26T06:01:37.650Z,8.95
2023-06-26T06:03:41.004Z,8.40
2023-06-26T06:05:45.097Z,8.57
2023-06-26T06:07:47.899Z,8.43
2023-06-26T06:09:50.548Z,8.65
2023-06-26T06:11:53.162Z,8.80
2023-06-26T06:13:55.748Z,7.93
2023-06-26T06:15:58.619Z,8.45
2023-06-26T06:18:01.405Z,8.30
2023-06-26T06:20:05.011Z,8.32
2023-06-26T06:22:08.969Z,7.90
2023-06-26T06:24:12.030Z,8.10
2023-06-26T06:26:14.682Z,8.65
2023-06-26T06:28:18.311Z,8.32
2023-06-26T06:30:39.245Z,8.05
2023-06-26T06:32:46.566Z,9.05
2023-06-26T06:34:49.209Z,8.18
2023-06-26T06:36:51.987Z,8.75
2023-06-26T06:38:56.062Z,8.38
2023-06-26T06:40:58.680Z,8.57
2023-06-26T06:43:01.308Z,8.02
2023-06-26T06:45:04.582Z,8.43
2023-06-26T06:47:07.416Z,7.63
2023-06-26T06:49:10.352Z,7.50
2023-06-26T06:51:12.919Z,7.88
2023-06-26T06:53:15.606Z,7.80
2023-06-26T06:55:19.745Z,7.63
2023-06-26T06:57:22.717Z,7.63
2023-06-26T06:59:25.343Z,8.18
2023-06-26T07:01:27.938Z,8.52
2023-06-26T07:03:30.630Z,7.63
2023-06-26T07:05:33.317Z,7.43
2023-06-26T07:07:37.048Z,7.50
2023-06-26T07:09:40.171Z,7.47
2023-06-26T07:11:44.123Z,7.15
2023-06-26T07:13:46.797Z,7.05
2023-06-26T07:15:49.842Z,7.18
2023-06-26T07:17:52.619Z,7.38
2023-06-26T07:19:55.194Z,7.95
2023-06-26T07:21:57.819Z,7.65
2023-06-26T07:24:00.460Z,7.55
2023-06-26T07:26:03.087Z,7.72
2023-06-26T07:28:12.697Z,7.57
2023-06-26T07:30:15.308Z,7.25
2023-06-26T07:32:18.072Z,7.60
2023-06-26T07:34:20.785Z,7.22
2023-06-26T07:36:23.978Z,7.20
2023-06-26T07:38:26.589Z,7.50
2023-06-26T07:40:29.298Z,7.20
2023-06-26T07:42:31.948Z,7.25
2023-06-26T07:44:35.929Z,7.88
2023-06-26T07:46:55.239Z,7.28
2023-06-26T07:49:07.529Z,7.30
2023-06-26T07:51:14.561Z,7.00
2023-06-26T07:53:36.113Z,6.93
2023-06-26T07:56:00.728Z,6.90
2023-06-26T07:58:12.024Z,6.80
2023-06-26T08:00:21.672Z,7.00
2023-06-26T08:05:04.515Z,6.63
2023-06-26T08:09:44.738Z,6.80
2023-06-26T08:14:24.476Z,7.50
2023-06-26T08:16:30.578Z,6.57
2023-06-26T08:18:36.302Z,7.53
2023-06-26T08:20:41.551Z,6.97
2023-06-26T08:22:44.806Z,6.55
2023-06-26T08:24:48.166Z,6.22
2023-06-26T08:26:51.601Z,6.50
2023-06-26T08:28:58.358Z,6.28
2023-06-26T08:31:02.941Z,6.50
2023-06-26T08:33:11.752Z,6.53
2023-06-26T08:35:17.065Z,6.25
2023-06-26T08:37:20.317Z,6.75
2023-06-26T08:39:23.057Z,6.35
2023-06-26T08:41:27.801Z,6.22
2023-06-26T08:43:31.515Z,6.78
2023-06-26T08:45:40.403Z,6.60
2023-06-26T08:47:46.616Z,6.57
2023-06-26T08:50:04.171Z,6.03
2023-06-26T08:52:15.637Z,6.35
2023-06-26T08:56:24.108Z,6.20
2023-06-26T08:58:26.838Z,6.25
2023-06-26T09:00:38.726Z,6.13
2023-06-26T09:02:46.817Z,6.45
2023-06-26T09:04:51.361Z,6.05
2023-06-26T09:07:04.438Z,6.65
2023-06-26T09:09:08.778Z,5.88
2023-06-26T09:11:12.994Z,6.65
2023-06-26T09:13:35.367Z,6.15
2023-06-26T09:15:53.161Z,6.05
2023-06-26T09:18:04.808Z,5.78
2023-06-26T09:22:28.032Z,5.90
2023-06-26T09:24:35.434Z,6.22
2023-06-26T09:26:41.889Z,6.47
2023-06-26T09:28:52.611Z,6.38
2023-06-26T09:31:08.993Z,6.50
2023-06-26T09:33:17.515Z,5.93
2023-06-26T09:35:43.021Z,6.35
2023-06-26T09:38:09.099Z,6.45
2023-06-26T09:40:16.665Z,5.85
2023-06-26T09:42:38.977Z,6.00
2023-06-26T09:45:03.413Z,6.38
2023-06-26T09:47:16.911Z,6.40
2023-06-26T09:49:20.898Z,6.93
2023-06-26T09:51:24.986Z,6.20
2023-06-26T09:53:30.294Z,7.07
2023-06-26T09:55:36.978Z,6.72
2023-06-26T09:57:40.440Z,6.35
2023-06-26T09:59:45.569Z,6.38
2023-06-26T10:01:48.641Z,6.10
2023-06-26T10:03:51.619Z,6.18
2023-06-26T10:05:55.688Z,6.20
2023-06-26T10:07:58.943Z,6.75
2023-06-26T10:10:04.890Z,6.25
2023-06-26T10:12:13.176Z,6.47
2023-06-26T10:14:18.414Z,6.28
2023-06-26T10:16:27.859Z,6.47
2023-06-26T10:18:33.747Z,7.00
2023-06-26T10:20:36.761Z,6.53
2023-06-26T10:22:44.861Z,6.40
2023-06-26T10:24:49.628Z,5.75
2023-06-26T10:26:59.669Z,6.43
2023-06-26T10:29:03.931Z,6.22
2023-06-26T10:31:10.245Z,6.20
2023-06-26T10:33:14.540Z,6.32
2023-06-26T10:35:17.505Z,6.30
2023-06-26T10:37:20.203Z,6.28
2023-06-26T10:39:22.954Z,6.63
2023-06-26T10:41:26.995Z,6.20
2023-06-26T10:43:33.066Z,7.25
2023-06-26T10:45:36.309Z,6.97
2023-06-26T10:47:40.698Z,6.28
2023-06-26T10:49:58.165Z,6.88
2023-06-26T10:52:13.736Z,6.40
2023-06-26T10:54:17.518Z,6.65
2023-06-26T10:56:20.202Z,6.43
2023-06-26T10:58:30.345Z,6.95
2023-06-26T11:00:34.454Z,7.10
2023-06-26T11:02:50.066Z,6.50
2023-06-26T11:05:02.059Z,6.40
2023-06-26T11:07:21.170Z,6.40
2023-06-26T11:09:28.408Z,6.35
2023-06-26T11:12:03.028Z,6.82
2023-06-26T11:14:06.641Z,6.65
2023-06-26T11:16:11.003Z,6.88
2023-06-26T11:18:14.467Z,7.25
2023-06-26T11:20:18.949Z,6.72
2023-06-26T11:22:22.150Z,7.65
2023-06-26T11:24:26.108Z,7.57
2023-06-26T11:26:28.917Z,7.00
2023-06-26T11:28:31.740Z,7.15
2023-06-26T11:30:34.507Z,7.50
2023-06-26T11:32:38.843Z,6.82
2023-06-26T11:34:43.794Z,7.28
2023-06-26T11:36:47.676Z,7.10
2023-06-26T11:38:55.162Z,7.75
2023-06-26T11:40:58.262Z,7.30
2023-06-26T11:43:01.943Z,7.70
2023-06-26T11:45:04.658Z,7.03
2023-06-26T11:47:08.016Z,7.40
2023-06-26T11:49:12.656Z,7.82
2023-06-26T11:51:16.073Z,6.90
2023-06-26T11:53:18.811Z,7.32
2023-06-26T11:55:21.466Z,6.53
2023-06-26T11:57:24.085Z,7.50
2023-06-26T11:59:35.117Z,7.90
2023-06-26T12:01:39.703Z,7.10
2023-06-26T12:03:42.575Z,7.10
2023-06-26T12:05:47.017Z,7.18
2023-06-26T12:07:51.386Z,8.20
2023-06-26T12:09:54.666Z,7.80
2023-06-26T12:11:58.752Z,7.55
2023-06-26T12:14:02.752Z,7.28
2023-06-26T12:16:05.997Z,6.93
2023-06-26T12:18:11.610Z,7.07
2023-06-26T12:20:21.129Z,7.05
2023-06-26T12:22:25.168Z,7.10
2023-06-26T12:24:28.608Z,7.65
2023-06-26T12:26:31.580Z,7.25
2023-06-26T12:28:39.039Z,8.10
2023-06-26T12:30:42.636Z,7.28
2023-06-26T12:32:47.288Z,7.07
2023-06-26T12:34:55.539Z,7.28
2023-06-26T12:37:35.079Z,7.28
2023-06-26T12:44:05.201Z,7.60
2023-06-26T12:50:29.212Z,6.55
2023-06-26T12:53:31.986Z,6.88
2023-06-26T12:56:29.884Z,6.80
2023-06-26T13:01:51.224Z,6.50
2023-06-26T13:11:31.666Z,5.95
2023-06-26T13:14:30.461Z,6.40
2023-06-26T13:16:33.186Z,6.32
2023-06-26T13:18:35.888Z,6.65
2023-06-26T13:20:40.827Z,6.38
2023-06-26T13:22:43.744Z,6.35
2023-06-26T13:24:47.290Z,6.57
2023-06-26T13:26:51.353Z,6.50
2023-06-26T13:28:54.801Z,6.32
2023-06-26T13:30:57.472Z,6.63
2023-06-26T13:33:00.282Z,6.82
2023-06-26T13:35:03.244Z,6.82
2023-06-26T13:37:07.531Z,7.22
2023-06-26T13:39:10.227Z,6.30
2023-06-26T13:41:12.973Z,6.57
2023-06-26T13:43:17.011Z,7.15
2023-06-26T13:47:29.190Z,6.15
2023-06-26T13:49:31.799Z,7.13
2023-06-26T13:51:34.384Z,6.75
2023-06-26T13:53:36.975Z,6.60
2023-06-26T13:55:39.942Z,7.20
2023-06-26T13:57:43.600Z,7.03
2023-06-26T13:59:48.670Z,6.45
2023-06-26T14:01:51.522Z,7.00
2023-06-26T14:03:54.177Z,7.05
2023-06-26T14:05:56.833Z,6.68
2023-06-26T14:07:59.885Z,6.72
2023-06-26T14:10:02.717Z,7.05
2023-06-26T14:12:06.159Z,6.95
2023-06-26T14:14:08.781Z,6.57
2023-06-26T14:16:12.803Z,6.80
2023-06-26T14:18:15.613Z,6.53
2023-06-26T14:20:19.558Z,6.72
2023-06-26T14:22:22.251Z,7.95
2023-06-26T14:24:24.915Z,6.72
2023-06-26T14:26:27.644Z,6.40
2023-06-26T14:28:30.264Z,6.72
2023-06-26T14:30:32.917Z,6.20
2023-06-26T14:32:38.661Z,6.50
2023-06-26T14:34:42.045Z,6.78
2023-06-26T14:36:44.684Z,6.18
2023-06-26T14:38:47.445Z,6.45
2023-06-26T14:40:50.494Z,6.57
2023-06-26T14:42:54.121Z,6.95
2023-06-26T14:44:57.110Z,6.65
2023-06-26T14:47:00.186Z,6.22
2023-06-26T14:49:05.585Z,6.22
2023-06-26T14:51:08.211Z,6.35
2023-06-26T14:53:10.881Z,5.85
2023-06-26T14:55:13.606Z,6.68
2023-06-26T14:57:16.917Z,6.35
2023-06-26T14:59:19.574Z,6.00
2023-06-26T15:01:23.265Z,5.70
2023-06-26T15:03:26.321Z,6.30
2023-06-26T15:05:30.470Z,5.55
2023-06-26T15:07:33.112Z,6.25
2023-06-26T15:09:35.797Z,5.32
2023-06-26T15:11:38.513Z,5.53
2023-06-26T15:13:41.094Z,5.47
2023-06-26T15:15:43.710Z,5.40
2023-06-26T15:17:46.452Z,4.95
2023-06-26T15:19:49.562Z,4.82
2023-06-26T15:21:53.572Z,4.93
2023-06-26T15:23:56.230Z,5.38
2023-06-26T15:25:58.846Z,4.60
2023-06-26T15:28:01.464Z,5.25
2023-06-26T15:30:04.533Z,4.75
2023-06-26T15:32:08.132Z,4.55
2023-06-26T15:34:13.668Z,4.85
2023-06-26T15:36:17.199Z,4.38
2023-06-26T15:38:21.164Z,4.32
2023-06-26T15:40:23.773Z,4.47
2023-06-26T15:42:30.028Z,4.28
2023-06-26T15:44:33.594Z,4.60
2023-06-26T15:46:36.607Z,4.70
2023-06-26T15:48:41.600Z,4.00
2023-06-26T15:50:44.763Z,4.35
2023-06-26T15:52:47.781Z,4.25
2023-06-26T15:54:51.742Z,4.20
2023-06-26T15:56:56.741Z,3.80
2023-06-26T15:58:59.444Z,4.10
2023-06-26T16:01:02.600Z,4.43
2023-06-26T16:03:07.945Z,3.92
2023-06-26T16:05:11.106Z,4.25
2023-06-26T16:07:13.920Z,4.50
2023-06-26T16:09:16.625Z,4.15
2023-06-26T16:11:20.799Z,4.43
2023-06-26T16:13:23.399Z,4.40
2023-06-26T16:15:26.040Z,4.05
2023-06-26T16:17:28.685Z,4.43
2023-06-26T16:19:31.372Z,4.38
2023-06-26T16:21:33.956Z,4.68
2023-06-26T16:23:36.582Z,4.78
2023-06-26T16:25:39.384Z,4.35
2023-06-26T16:27:45.066Z,4.75
2023-06-26T16:29:48.499Z,4.22
2023-06-26T16:31:51.227Z,4.57
2023-06-26T16:33:54.522Z,4.38
2023-06-26T16:35:57.192Z,4.20
2023-06-26T16:37:59.807Z,5.38
2023-06-26T16:40:02.402Z,4.82
2023-06-26T16:42:05.506Z,5.68
2023-06-26T16:44:09.471Z,5.70
2023-06-26T16:46:12.106Z,6.28
2023-06-26T16:48:14.948Z,5.80
2023-06-26T16:50:17.860Z,5.32
2023-06-26T16:52:20.589Z,6.50
2023-06-26T16:54:23.305Z,6.93
2023-06-26T16:56:25.907Z,6.20
2023-06-26T16:58:28.568Z,5.88
2023-06-26T17:00:32.509Z,6.55
2023-06-26T17:02:35.310Z,6.47
2023-06-26T17:04:38.067Z,6.40
2023-06-26T17:06:40.665Z,6.20
2023-06-26T17:08:43.298Z,6.15
2023-06-26T17:10:45.945Z,6.38
2023-06-26T17:12:48.770Z,5.70
2023-06-26T17:14:51.365Z,5.50
2023-06-26T17:16:55.512Z,5.40
2023-06-26T17:18:58.173Z,5.28
2023-06-26T17:21:01.242Z,5.43
2023-06-26T17:23:04.306Z,5.90
2023-06-26T17:25:09.445Z,5.32
2023-06-26T17:27:15.289Z,5.70
2023-06-26T17:29:17.960Z,5.45
2023-06-26T17:31:20.660Z,5.18
2023-06-26T17:33:24.762Z,4.80
2023-06-26T17:35:28.449Z,8.38
2023-06-26T17:37:31.068Z,5.90
2023-06-26T17:39:34.178Z,4.10
2023-06-26T17:41:36.833Z,4.57
2023-06-26T17:43:39.502Z,4.68
2023-06-26T17:45:42.276Z,4.60
2023-06-26T17:47:44.958Z,3.88
2023-06-26T17:49:48.939Z,4.72
2023-06-26T17:51:51.712Z,4.28
2023-06-26T17:53:54.324Z,4.00
2023-06-26T17:55:57.017Z,3.85
2023-06-26T17:57:59.783Z,4.45
2023-06-26T18:00:02.470Z,4.22
2023-06-26T18:02:05.476Z,3.83
2023-06-26T18:04:09.087Z,3.85
2023-06-26T18:06:13.455Z,3.40
2023-06-26T18:08:16.092Z,3.80
2023-06-26T18:10:18.721Z,3.20
2023-06-26T18:12:21.450Z,3.40
2023-06-26T18:14:24.040Z,3.00
2023-06-26T18:16:26.862Z,4.25
2023-06-26T18:18:29.505Z,4.00
2023-06-26T18:20:32.088Z,2.70
2023-06-26T18:22:36.080Z,3.35
2023-06-26T18:24:39.366Z,2.85
2023-06-26T18:26:41.985Z,2.60
2023-06-26T18:28:44.747Z,3.10
2023-06-26T18:30:49.930Z,2.55
2023-06-26T18:32:55.211Z,2.92
2023-06-26T18:34:57.851Z,3.03
2023-06-26T18:37:00.478Z,3.05
2023-06-26T18:39:05.545Z,3.15
2023-06-26T18:41:08.297Z,4.22
2023-06-26T18:43:12.031Z,2.90
2023-06-26T18:45:14.952Z,3.00
2023-06-26T18:47:17.824Z,3.28
2023-06-26T18:49:20.439Z,2.75
2023-06-26T18:51:23.446Z,3.03
2023-06-26T18:53:26.350Z,2.58
2023-06-26T18:55:33.078Z,2.70
2023-06-26T18:57:38.427Z,2.95
2023-06-26T18:59:41.040Z,2.60
2023-06-26T19:01:44.994Z,2.42
2023-06-26T19:03:47.709Z,3.03
2023-06-26T19:05:50.333Z,2.42
2023-06-26T19:07:53.833Z,2.40
2023-06-26T19:10:00.437Z,2.20
2023-06-26T19:12:05.038Z,2.65
2023-06-26T19:14:07.688Z,2.67
2023-06-26T19:16:10.406Z,2.38
2023-06-26T19:18:15.073Z,2.70
2023-06-26T19:20:19.538Z,2.83
2023-06-26T19:22:22.461Z,2.20
2023-06-26T19:24:25.092Z,2.58
2023-06-26T19:26:27.951Z,2.17
2023-06-26T19:28:31.935Z,2.45
2023-06-26T19:30:34.761Z,2.45
2023-06-26T19:32:37.644Z,2.42
2023-06-26T19:34:40.355Z,2.20
2023-06-26T19:36:44.432Z,2.05
2023-06-26T19:38:47.037Z,2.67
2023-06-26T19:40:49.707Z,2.10
2023-06-26T19:42:52.398Z,2.45
2023-06-26T19:44:56.320Z,2.10
2023-06-26T19:46:59.669Z,2.35
2023-06-26T19:49:02.316Z,1.83
2023-06-26T19:51:05.293Z,1.70
2023-06-26T19:53:08.509Z,2.60
2023-06-26T19:55:12.367Z,2.00
2023-06-26T19:57:15.381Z,1.88
2023-06-26T19:59:18.038Z,2.05
2023-06-26T20:01:24.049Z,2.20
2023-06-26T20:03:26.799Z,1.90
2023-06-26T20:05:29.442Z,2.28
2023-06-26T20:07:33.039Z,1.83
2023-06-26T20:09:36.004Z,1.80
2023-06-26T20:11:38.705Z,1.80
2023-06-26T20:13:41.325Z,1.60
2023-06-26T20:15:44.172Z,2.00
2023-06-26T20:17:48.257Z,2.38
2023-06-26T20:19:50.888Z,2.30
2023-06-26T20:21:53.516Z,1.80
2023-06-26T20:23:56.111Z,1.73
2023-06-26T20:25:58.717Z,1.80
2023-06-26T20:28:01.458Z,1.58
2023-06-26T20:30:04.190Z,2.00
2023-06-26T20:32:07.399Z,1.98
2023-06-26T20:34:11.441Z,1.77
2023-06-26T20:36:14.035Z,1.60
2023-06-26T20:38:19.240Z,1.65
2023-06-26T20:40:23.115Z,1.65
2023-06-26T20:42:26.119Z,1.80
2023-06-26T20:44:29.214Z,2.00
2023-06-26T20:46:33.907Z,1.85
2023-06-26T20:48:38.362Z,1.60
2023-06-26T20:50:42.876Z,1.90
2023-06-26T20:52:45.942Z,2.00
2023-06-26T20:54:48.935Z,1.75
2023-06-26T20:56:51.565Z,2.75
2023-06-26T20:58:54.179Z,1.90
2023-06-26T21:00:56.848Z,2.00
2023-06-26T21:02:59.707Z,2.67
2023-06-26T21:05:02.424Z,2.10
2023-06-26T21:07:07.987Z,1.90
2023-06-26T21:09:10.667Z,1.80
2023-06-26T21:11:13.243Z,1.80
2023-06-26T21:13:16.012Z,2.05
2023-06-26T21:15:18.699Z,1.75
2023-06-26T21:17:21.344Z,1.88
2023-06-26T21:19:24.127Z,1.80
2023-06-26T21:21:26.753Z,1.77
2023-06-26T21:23:30.754Z,1.80
2023-06-26T21:25:33.438Z,1.75
2023-06-26T21:27:36.340Z,1.70
2023-06-26T21:29:38.957Z,1.40
2023-06-26T21:31:41.571Z,1.80
2023-06-26T21:33:44.201Z,1.70
2023-06-26T21:35:48.198Z,1.73
2023-06-26T21:37:51.464Z,1.45
2023-06-26T21:39:55.420Z,1.65
2023-06-26T21:41:58.124Z,1.77
2023-06-26T21:44:00.801Z,2.00
2023-06-26T21:46:03.542Z,2.30
2023-06-26T21:48:07.321Z,1.55
2023-06-26T21:50:10.834Z,1.70
2023-06-26T21:52:14.004Z,1.65
2023-06-26T21:54:16.723Z,1.88
2023-06-26T21:56:20.735Z,2.00
2023-06-26T21:58:23.939Z,1.70
2023-06-26T22:00:29.438Z,2.08
2023-06-26T22:02:32.047Z,1.50
2023-06-26T22:04:37.286Z,1.98
2023-06-26T22:06:40.432Z,1.85
2023-06-26T22:08:43.141Z,1.58
2023-06-26T22:10:45.829Z,2.00
2023-06-26T22:12:49.913Z,1.88
2023-06-26T22:14:52.549Z,1.80
2023-06-26T22:16:55.119Z,2.13
2023-06-26T22:18:57.745Z,1.80
2023-06-26T22:21:00.381Z,1.77
2023-06-26T22:23:03.188Z,1.55
2023-06-26T22:25:06.567Z,2.08
2023-06-26T22:27:09.301Z,2.10
2023-06-26T22:29:13.655Z,2.08
2023-06-26T22:31:16.322Z,1.52
2023-06-26T22:33:18.993Z,1.65
2023-06-26T22:35:21.722Z,1.70
2023-06-26T22:37:25.405Z,2.00
2023-06-26T22:39:28.027Z,2.08
2023-06-26T22:41:30.623Z,1.67
2023-06-26T22:43:34.552Z,1.73
2023-06-26T22:45:38.789Z,1.48
2023-06-26T22:47:45.534Z,1.83
2023-06-26T22:49:49.839Z,1.70
2023-06-26T22:51:52.637Z,2.08
2023-06-26T22:53:55.295Z,1.90
2023-06-26T22:55:57.859Z,1.88
2023-06-26T22:58:00.487Z,1.70
2023-06-26T23:00:09.695Z,1.70
2023-06-26T23:02:13.844Z,2.10
2023-06-26T23:04:16.558Z,1.80
2023-06-26T23:06:22.635Z,1.92
2023-06-26T23:08:26.220Z,1.88
2023-06-26T23:10:28.975Z,1.95
2023-06-26T23:12:31.851Z,1.50
2023-06-26T23:14:34.518Z,1.85
2023-06-26T23:16:38.346Z,1.88
2023-06-26T23:18:42.402Z,2.15
2023-06-26T23:20:46.279Z,1.90
2023-06-26T23:22:48.917Z,2.08
2023-06-26T23:24:58.427Z,1.90
2023-06-26T23:27:01.888Z,1.90
2023-06-26T23:29:05.235Z,2.17
2023-06-26T23:31:07.893Z,1.67
2023-06-26T23:33:10.535Z,2.13
2023-06-26T23:35:14.756Z,1.80
2023-06-26T23:37:26.618Z,1.90
2023-06-26T23:39:29.424Z,1.70
2023-06-26T23:41:32.840Z,1.90
2023-06-26T23:43:35.436Z,2.17
2023-06-26T23:45:39.162Z,1.98
2023-06-26T23:47:41.907Z,1.90
2023-06-26T23:49:44.496Z,1.52
2023-06-26T23:51:49.853Z,1.65
2023-06-26T23:53:53.387Z,1.40
2023-06-26T23:55:56.001Z,1.88
2023-06-26T23:57:58.698Z,1.73
